Time;durP1;ratioP1;P1;durP2;ratioP2;P2;SDS_P1;SDS_P2;PMS_P1;PMS_P2;Temp;Humidity;BMP_temperature;BMP_pressure;BME280_temperature;BME280_humidity;BME280_pressure;Samples;Min_cycle;Max_cycle;Signal;HPM_P1;HPM_P2
2022/05/14 00:01:20;;;;;;;;;;;;;;;16.78;45.77;101046.47;5000661;28;7332;-75
2022/05/14 00:03:47;;;;;;;;;;;;;;;16.76;45.89;101043.81;4987960;28;6776;-75
2022/05/14 00:06:23;;;;;;;;;;;;;;;16.74;45.78;101049.78;4989580;28;6800;-75
2022/05/14 00:08:50;;;;;;;;;;;;;;;16.71;45.74;101045.41;5005778;28;7110;-75
2022/05/14 00:14:04;;;;;;;;;;;;;;;16.63;45.88;101039.94;5002962;28;6966;-75
2022/05/14 00:16:32;;;;;;;;;;;;;;;16.61;45.68;101048.47;4987140;28;6800;-75
2022/05/14 00:19:00;;;;;;;;;;;;;;;16.58;46.05;101046.69;4978605;28;6808;-75
2022/05/14 00:21:26;;;;;;;;;;;;;;;16.52;45.81;101047.38;4999236;28;6800;-75
2022/05/14 00:23:51;;;;;;;;;;;;;;;16.49;45.84;101046.38;5003675;28;7211;-75
2022/05/14 00:26:19;;;;;;;;;;;;;;;16.45;45.57;101047.09;5000653;28;7054;-75
2022/05/14 00:28:46;;;;;;;;;;;;;;;16.41;45.41;101043.50;5005423;28;6804;-75
2022/05/14 00:31:12;;;;;;;;;;;;;;;16.37;45.59;101044.25;4998289;28;7095;-75
2022/05/14 00:33:37;;;;;;;;;;;;;;;16.33;45.78;101044.97;5003551;28;8026;-75
2022/05/14 00:36:04;;;;;;;;;;;;;;;16.29;46.45;101038.81;4997295;28;7536;-75
2022/05/14 00:38:30;;;;;;;;;;;;;;;16.28;46.22;101041.34;5003581;28;6804;-75
2022/05/14 00:41:00;;;;;;;;;;;;;;;16.24;45.87;101038.66;4997982;28;6796;-75
2022/05/14 00:43:27;;;;;;;;;;;;;;;16.20;45.89;101036.78;4993883;28;6820;-75
2022/05/14 00:46:05;;;;;;;;;;;;;;;16.18;45.62;101035.00;5000423;28;6807;-74
2022/05/14 00:48:39;;;;;;;;;;;;;;;16.13;45.65;101037.41;5004012;28;6815;-74
2022/05/14 00:51:07;;;;;;;;;;;;;;;16.08;46.20;101042.41;4990905;28;6888;-74
2022/05/14 00:53:44;;;;;;;;;;;;;;;16.03;46.57;101038.78;5000981;28;6819;-74
2022/05/14 00:56:18;;;;;;;;;;;;;;;15.98;46.58;101040.28;5001157;28;6807;-74
2022/05/14 00:59:25;;;;;;;;;;;;;;;15.93;45.93;101037.56;5001314;28;6808;-74
2022/05/14 01:01:51;;;;;;;;;;;;;;;15.86;46.73;101034.66;5000135;28;6884;-75
2022/05/14 01:04:20;;;;;;;;;;;;;;;15.81;46.87;101039.66;4993482;28;7236;-75
2022/05/14 01:07:07;;;;;;;;;;;;;;;15.76;46.81;101031.75;4996804;28;6807;-75
2022/05/14 01:09:42;;;;;;;;;;;;;;;15.73;46.91;101033.31;4998690;28;6843;-75
2022/05/14 01:12:09;;;;;;;;;;;;;;;15.69;46.54;101034.91;4979101;28;1071792;-74
2022/05/14 01:14:35;;;;;;;;;;;;;;;15.67;47.36;101028.81;5002135;28;6788;-74
2022/05/14 01:17:00;;;;;;;;;;;;;;;15.66;46.54;101037.38;4999062;28;6776;-74
2022/05/14 01:19:27;;;;;;;;;;;;;;;15.64;47.27;101034.75;5004576;28;6760;-74
2022/05/14 01:22:13;;;;;;;;;;;;;;;15.62;47.07;101036.38;5001276;28;7133;-74
2022/05/14 01:27:49;;;;;;;;;;;;;;;15.56;46.90;101025.84;5000642;28;6896;-74
2022/05/14 01:30:16;;;;;;;;;;;;;;;15.54;46.90;101032.63;4984610;28;7026;-74
2022/05/14 01:32:45;;;;;;;;;;;;;;;15.52;46.97;101042.94;4985608;28;6772;-74
2022/05/14 01:35:16;;;;;;;;;;;;;;;15.51;46.54;101048.94;4978349;28;7336;-74
2022/05/14 01:37:41;;;;;;;;;;;;;;;15.51;46.63;101045.44;4982751;28;6796;-74
2022/05/14 01:40:08;;;;;;;;;;;;;;;15.47;47.30;101039.28;4999108;28;6772;-75
2022/05/14 01:42:34;;;;;;;;;;;;;;;15.45;46.96;101038.34;4996916;28;6804;-74
2022/05/14 01:44:59;;;;;;;;;;;;;;;15.41;47.18;101045.09;5001631;28;6760;-74
2022/05/14 01:47:25;;;;;;;;;;;;;;;15.40;47.04;101045.03;4996145;28;6799;-74
2022/05/14 01:49:51;;;;;;;;;;;;;;;15.36;46.99;101049.22;5015786;28;6919;-74
2022/05/14 01:52:16;;;;;;;;;;;;;;;15.32;47.13;101049.03;4999044;28;6906;-74
2022/05/14 01:54:42;;;;;;;;;;;;;;;15.26;46.76;101047.97;5004860;28;8457;-74
2022/05/14 01:57:08;;;;;;;;;;;;;;;15.20;47.05;101045.13;4996153;28;6906;-74
2022/05/14 01:59:33;;;;;;;;;;;;;;;15.14;46.62;101047.50;5003545;28;6788;-75
2022/05/14 02:02:00;;;;;;;;;;;;;;;15.07;46.68;101046.38;5015069;28;6780;-75
2022/05/14 02:04:26;;;;;;;;;;;;;;;15.04;47.00;101041.06;4999699;28;6815;-75
2022/05/14 02:06:52;;;;;;;;;;;;;;;15.02;46.77;101039.25;5001993;28;6930;-75
2022/05/14 02:09:19;;;;;;;;;;;;;;;14.99;47.20;101042.59;5000741;28;7007;-75
2022/05/14 02:11:45;;;;;;;;;;;;;;;14.96;47.56;101037.28;4996458;28;7908;-75
2022/05/14 02:14:12;;;;;;;;;;;;;;;14.93;47.15;101047.50;4999001;28;6792;-75
2022/05/14 02:16:38;;;;;;;;;;;;;;;14.92;47.67;101046.63;4998605;28;7059;-75
2022/05/14 02:19:04;;;;;;;;;;;;;;;14.90;47.25;101042.22;5000854;28;6824;-74
2022/05/14 02:21:32;;;;;;;;;;;;;;;14.88;47.26;101046.44;4996388;28;7164;-74
2022/05/14 02:23:59;;;;;;;;;;;;;;;14.85;47.40;101047.19;4994277;28;6876;-74
2022/05/14 02:26:24;;;;;;;;;;;;;;;14.82;47.09;101049.63;5001254;28;6819;-74
2022/05/14 02:28:50;;;;;;;;;;;;;;;14.79;47.87;101045.25;5000679;28;7173;-74
2022/05/14 02:31:16;;;;;;;;;;;;;;;14.76;47.85;101045.09;4999709;28;6799;-74
2022/05/14 02:33:41;;;;;;;;;;;;;;;14.73;47.86;101045.00;4999597;28;6844;-74
2022/05/14 02:36:10;;;;;;;;;;;;;;;14.69;47.20;101048.25;4997598;28;6859;-74
2022/05/14 02:38:36;;;;;;;;;;;;;;;14.67;48.17;101045.59;4984911;28;7038;-74
2022/05/14 02:41:04;;;;;;;;;;;;;;;14.64;47.44;101057.47;4999247;28;6792;-74
2022/05/14 02:43:32;;;;;;;;;;;;;;;14.63;47.70;101058.28;4998808;28;7228;-74
2022/05/14 02:45:59;;;;;;;;;;;;;;;14.58;47.89;101061.56;4999590;28;6824;-74
2022/05/14 02:48:25;;;;;;;;;;;;;;;14.58;47.84;101064.16;5003588;28;7055;-74
2022/05/14 02:50:51;;;;;;;;;;;;;;;14.55;47.37;101060.56;4996011;28;8364;-74
2022/05/14 02:53:17;;;;;;;;;;;;;;;14.54;48.18;101059.66;4999886;28;6890;-74
2022/05/14 02:55:43;;;;;;;;;;;;;;;14.50;48.01;101050.06;5002066;28;7055;-74
2022/05/14 02:58:09;;;;;;;;;;;;;;;14.47;47.70;101054.19;5002845;28;6779;-73
2022/05/14 03:00:35;;;;;;;;;;;;;;;14.44;47.71;101060.09;5001619;28;7206;-74
2022/05/14 03:03:00;;;;;;;;;;;;;;;14.40;48.23;101055.63;5000747;28;6780;-74
2022/05/14 03:05:27;;;;;;;;;;;;;;;14.37;47.68;101055.47;5001979;28;6950;-74
2022/05/14 03:07:53;;;;;;;;;;;;;;;14.35;47.54;101059.69;5001627;28;6799;-74
2022/05/14 03:10:19;;;;;;;;;;;;;;;14.32;48.50;101054.41;5000131;28;6768;-74
2022/05/14 03:12:45;;;;;;;;;;;;;;;14.29;48.30;101052.59;5001467;28;6852;-74
2022/05/14 03:15:12;;;;;;;;;;;;;;;14.27;47.66;101057.66;4969513;28;6935;-74
2022/05/14 03:17:38;;;;;;;;;;;;;;;14.25;48.68;101050.69;5016289;28;6812;-74
2022/05/14 03:20:09;;;;;;;;;;;;;;;14.22;48.01;101048.88;4986497;28;7142;-74
2022/05/14 03:22:39;;;;;;;;;;;;;;;14.20;47.80;101053.09;4994173;28;6816;-74
2022/05/14 03:25:07;;;;;;;;;;;;;;;14.19;48.05;101056.44;4997838;28;6899;-74
2022/05/14 03:27:33;;;;;;;;;;;;;;;14.16;48.27;101048.59;5004939;28;6804;-74
2022/05/14 03:29:59;;;;;;;;;;;;;;;14.13;49.09;101051.03;4998864;28;6792;-74
2022/05/14 03:32:27;;;;;;;;;;;;;;;14.11;48.55;101057.84;5001197;28;7007;-74
2022/05/14 03:34:54;;;;;;;;;;;;;;;14.09;49.23;101051.69;4998855;28;6958;-74
2022/05/14 03:37:23;;;;;;;;;;;;;;;14.07;48.51;101046.50;4972518;28;7218;-74
2022/05/14 03:39:48;;;;;;;;;;;;;;;14.07;49.39;101050.75;5000404;28;7232;-74
2022/05/14 03:42:14;;;;;;;;;;;;;;;14.05;49.15;101040.41;4999885;28;6788;-74
2022/05/14 03:44:40;;;;;;;;;;;;;;;14.03;48.82;101042.91;4996969;28;7066;-74
2022/05/14 03:47:06;;;;;;;;;;;;;;;14.03;49.52;101045.47;4998203;28;6927;-74
2022/05/14 03:49:31;;;;;;;;;;;;;;;14.01;49.44;101044.53;4995602;28;7967;-74
2022/05/14 03:51:57;;;;;;;;;;;;;;;14.00;49.67;101040.19;4993217;28;6981;-74
2022/05/14 03:54:23;;;;;;;;;;;;;;;14.01;49.76;101043.63;5001719;28;7810;-74
2022/05/14 03:56:48;;;;;;;;;;;;;;;14.01;49.62;101047.13;4993063;28;8821;-74
2022/05/14 03:59:14;;;;;;;;;;;;;;;14.02;48.95;101042.81;4997583;28;7063;-74
2022/05/14 04:01:40;;;;;;;;;;;;;;;14.03;49.01;101045.47;4992200;28;7315;-74
2022/05/14 04:04:06;;;;;;;;;;;;;;;14.05;49.82;101042.09;4990282;28;6868;-74
2022/05/14 04:06:32;;;;;;;;;;;;;;;14.07;49.55;101043.03;5002758;28;6779;-74
2022/05/14 04:08:57;;;;;;;;;;;;;;;14.08;49.64;101044.78;4996458;28;8934;-74
2022/05/14 04:11:23;;;;;;;;;;;;;;;14.11;49.20;101052.69;5002833;28;6795;-74
2022/05/14 04:13:49;;;;;;;;;;;;;;;14.14;48.94;101045.06;5004129;28;7054;-74
2022/05/14 04:16:14;;;;;;;;;;;;;;;14.17;49.58;101047.75;4986427;28;6872;-74
2022/05/14 04:18:41;;;;;;;;;;;;;;;14.20;49.19;101052.19;5004970;28;6914;-74
2022/05/14 04:21:07;;;;;;;;;;;;;;;14.23;49.84;101048.03;4996913;28;6796;-74
2022/05/14 04:23:33;;;;;;;;;;;;;;;14.29;49.79;101053.47;4999486;28;7041;-74
2022/05/14 04:26:00;;;;;;;;;;;;;;;14.38;49.98;101057.25;5002516;28;6807;-74
2022/05/14 04:28:27;;;;;;;;;;;;;;;14.50;49.48;101056.88;5005187;28;6780;-74
2022/05/14 04:30:53;;;;;;;;;;;;;;;14.61;50.20;101058.22;4997771;28;6895;-74
2022/05/14 04:33:20;;;;;;;;;;;;;;;14.75;49.60;101061.41;4999148;28;6876;-74
2022/05/14 04:35:47;;;;;;;;;;;;;;;14.84;49.88;101064.38;4987654;28;7141;-74
2022/05/14 04:38:12;;;;;;;;;;;;;;;14.90;49.44;101055.13;5002553;28;7261;-74
2022/05/14 04:40:38;;;;;;;;;;;;;;;14.94;49.35;101054.41;4993636;28;6874;-74
2022/05/14 04:43:09;;;;;;;;;;;;;;;14.98;49.20;101054.59;4997305;28;6809;-73
2022/05/14 04:45:37;;;;;;;;;;;;;;;15.02;49.49;101053.03;4994302;28;7169;-73
2022/05/14 04:48:05;;;;;;;;;;;;;;;15.09;49.47;101060.22;4987895;28;7430;-73
2022/05/14 04:50:31;;;;;;;;;;;;;;;15.18;49.55;101061.41;5002709;28;6803;-73
2022/05/14 04:52:57;;;;;;;;;;;;;;;15.32;50.18;101072.28;4983523;28;6793;-73
2022/05/14 04:55:23;;;;;;;;;;;;;;;15.49;50.04;101057.44;5001862;28;7182;-73
2022/05/14 04:57:48;;;;;;;;;;;;;;;15.71;49.46;101061.72;5000726;28;6792;-73
2022/05/14 05:00:15;;;;;;;;;;;;;;;15.91;49.25;101065.06;4996969;28;6780;-74
2022/05/14 05:05:29;;;;;;;;;;;;;;;16.36;48.88;101066.63;5003553;28;6820;-74
2022/05/14 05:07:56;;;;;;;;;;;;;;;16.60;49.04;101067.44;5001991;28;6892;-74
2022/05/14 05:10:22;;;;;;;;;;;;;;;16.86;49.41;101062.25;4989303;28;6875;-74
2022/05/14 05:12:48;;;;;;;;;;;;;;;17.12;49.13;101067.44;4997801;28;6804;-71
2022/05/14 05:15:15;;;;;;;;;;;;;;;17.39;48.19;101071.72;4974425;28;6808;-71
2022/05/14 05:17:41;;;;;;;;;;;;;;;17.63;48.07;101066.41;4987060;28;6884;-71
2022/05/14 05:20:09;;;;;;;;;;;;;;;17.81;47.42;101071.22;5001747;28;7018;-71
2022/05/14 05:22:37;;;;;;;;;;;;;;;18.00;46.97;101076.94;5003566;28;6807;-71
2022/05/14 05:25:05;;;;;;;;;;;;;;;18.14;46.90;101070.44;5004428;28;7169;-71
2022/05/14 05:27:31;;;;;;;;;;;;;;;18.34;46.79;101082.22;5004218;28;7212;-71
2022/05/14 05:29:57;;;;;;;;;;;;;;;18.52;46.55;101084.41;5001656;28;7010;-71
2022/05/14 05:32:22;;;;;;;;;;;;;;;18.68;46.17;101089.16;5001770;28;6859;-71
2022/05/14 05:34:48;;;;;;;;;;;;;;;18.86;46.51;101093.06;5000182;28;7028;-71
2022/05/14 05:37:14;;;;;;;;;;;;;;;19.04;45.27;101091.81;5014166;28;7569;-71
2022/05/14 05:39:39;;;;;;;;;;;;;;;19.20;45.49;101090.44;4995099;28;6800;-71
2022/05/14 05:42:05;;;;;;;;;;;;;;;19.35;45.34;101095.13;4994150;28;7315;-71
2022/05/14 05:44:31;;;;;;;;;;;;;;;19.51;44.68;101097.22;4978143;28;6910;-71
2022/05/14 05:46:57;;;;;;;;;;;;;;;19.65;44.94;101094.03;4981602;28;6871;-71
2022/05/14 05:49:22;;;;;;;;;;;;;;;19.77;44.40;101096.03;4996941;28;6833;-71
2022/05/14 05:51:48;;;;;;;;;;;;;;;19.82;42.94;101095.28;4999094;28;7019;-71
2022/05/14 05:56:59;;;;;;;;;;;;;;;19.64;42.09;101106.16;5000259;28;6915;-71
2022/05/14 05:59:30;;;;;;;;;;;;;;;19.47;41.90;101107.53;5001570;28;7159;-71
2022/05/14 06:01:56;;;;;;;;;;;;;;;19.27;41.72;101106.19;4998256;28;6812;-71
2022/05/14 06:04:22;;;;;;;;;;;;;;;19.06;42.50;101103.09;5000662;28;6965;-71
2022/05/14 06:06:48;;;;;;;;;;;;;;;18.85;42.76;101105.16;5004016;28;6800;-72
2022/05/14 06:09:19;;;;;;;;;;;;;;;18.70;42.75;101108.25;4978927;28;7026;-72
2022/05/14 06:11:45;;;;;;;;;;;;;;;18.58;42.70;101108.81;5016195;28;6824;-72
2022/05/14 06:14:13;;;;;;;;;;;;;;;18.45;43.21;101092.06;5000253;28;6959;-72
2022/05/14 06:16:39;;;;;;;;;;;;;;;18.36;43.13;101091.81;4999058;28;7884;-72
2022/05/14 06:19:06;;;;;;;;;;;;;;;18.30;43.31;101089.94;4999554;28;6804;-72
2022/05/14 06:21:33;;;;;;;;;;;;;;;18.28;43.26;101094.16;4996942;28;8248;-72
2022/05/14 06:23:59;;;;;;;;;;;;;;;18.27;43.85;101100.19;4996025;28;6808;-72
2022/05/14 06:26:25;;;;;;;;;;;;;;;18.27;43.63;101099.34;4998709;28;6803;-72
2022/05/14 06:28:50;;;;;;;;;;;;;;;18.27;43.87;101102.78;5001366;28;6912;-72
2022/05/14 06:31:17;;;;;;;;;;;;;;;18.26;43.80;101102.78;5002504;28;6827;-72
2022/05/14 06:33:47;;;;;;;;;;;;;;;18.26;43.33;101100.19;4999981;28;6879;-72
2022/05/14 06:36:14;;;;;;;;;;;;;;;18.25;44.02;101109.66;5002002;28;7684;-72
2022/05/14 06:38:40;;;;;;;;;;;;;;;18.29;43.71;101108.03;4998398;28;6791;-72
2022/05/14 06:41:13;;;;;;;;;;;;;;;18.36;44.34;101116.88;4993429;28;6947;-71
2022/05/14 06:43:40;;;;;;;;;;;;;;;18.40;44.12;101113.53;5013344;28;6895;-71
2022/05/14 06:46:08;;;;;;;;;;;;;;;18.43;44.31;101114.47;4996125;28;7203;-71
2022/05/14 06:48:35;;;;;;;;;;;;;;;18.49;44.26;101118.09;4996724;28;6993;-71
2022/05/14 06:51:14;;;;;;;;;;;;;;;18.54;44.06;101117.38;5001675;28;8357;-71
2022/05/14 06:53:41;;;;;;;;;;;;;;;18.57;44.32;101113.97;4999382;28;7232;-71
2022/05/14 06:56:11;;;;;;;;;;;;;;;18.64;44.81;101121.09;5001836;28;7086;-71
2022/05/14 06:58:39;;;;;;;;;;;;;;;18.71;44.16;101122.13;4992774;28;7932;-71
2022/05/14 07:01:06;;;;;;;;;;;;;;;18.80;44.77;101124.97;5000246;28;6803;-71
2022/05/14 07:09:35;;;;;;;;;;;;;;;19.34;45.10;101128.00;5001280;28;6843;-72
2022/05/14 07:12:08;;;;;;;;;;;;;;;19.59;44.74;101132.91;4981448;28;6868;-72
2022/05/14 07:14:34;;;;;;;;;;;;;;;19.82;44.75;101128.19;4978147;28;7909;-72
2022/05/14 07:17:00;;;;;;;;;;;;;;;19.99;43.85;101123.41;5005755;28;6883;-72
2022/05/14 07:19:26;;;;;;;;;;;;;;;20.13;44.33;101126.25;5004732;28;6795;-72
2022/05/14 07:21:54;;;;;;;;;;;;;;;20.28;44.03;101117.91;5001922;28;6800;-72
2022/05/14 07:24:28;;;;;;;;;;;;;;;20.45;43.92;101118.22;4988650;28;7153;-72
2022/05/14 07:26:59;;;;;;;;;;;;;;;20.64;43.49;101119.41;4986172;28;7941;-72
2022/05/14 07:29:27;;;;;;;;;;;;;;;20.84;43.53;101115.44;5002363;28;7056;-72
2022/05/14 07:31:53;;;;;;;;;;;;;;;21.00;43.50;101117.44;5004546;28;6804;-72
2022/05/14 07:34:20;;;;;;;;;;;;;;;21.15;43.18;101121.16;5005348;28;6827;-72
2022/05/14 07:37:08;;;;;;;;;;;;;;;21.27;42.73;101112.66;5003583;28;6848;-72
2022/05/14 07:39:48;;;;;;;;;;;;;;;21.42;42.71;101112.00;5003447;28;7035;-72
2022/05/14 07:42:27;;;;;;;;;;;;;;;21.59;42.66;101113.13;4995469;28;6808;-72
2022/05/14 07:44:57;;;;;;;;;;;;;;;21.76;42.40;101102.03;5009154;28;6876;-72
2022/05/14 07:47:23;;;;;;;;;;;;;;;21.95;42.42;101115.31;5009693;28;6962;-72
2022/05/14 07:49:50;;;;;;;;;;;;;;;22.13;41.92;101109.47;5007807;28;6795;-72
2022/05/14 07:52:18;;;;;;;;;;;;;;;22.28;41.71;101114.84;5008676;28;7011;-72
2022/05/14 07:54:43;;;;;;;;;;;;;;;22.40;41.52;101118.44;5005066;28;6990;-72
2022/05/14 07:57:09;;;;;;;;;;;;;;;22.51;41.21;101122.09;5009259;28;6946;-72
2022/05/14 07:59:35;;;;;;;;;;;;;;;22.63;41.05;101123.06;5007579;28;7169;-72
2022/05/14 08:02:18;;;;;;;;;;;;;;;22.72;41.12;101120.53;5008139;28;6987;-72
2022/05/14 08:04:44;;;;;;;;;;;;;;;22.82;40.64;101119.75;5007493;28;6815;-72
2022/05/14 08:07:10;;;;;;;;;;;;;;;22.96;40.92;101118.97;5005665;28;7907;-72
2022/05/14 08:09:35;;;;;;;;;;;;;;;23.10;40.79;101119.97;4979837;28;7155;-72
2022/05/14 08:12:01;;;;;;;;;;;;;;;23.25;40.36;101121.84;5006728;28;6822;-72
2022/05/14 08:14:28;;;;;;;;;;;;;;;23.36;40.00;101114.06;5008103;28;8578;-72
2022/05/14 08:16:54;;;;;;;;;;;;;;;23.44;39.78;101112.38;5021778;28;6796;-72
2022/05/14 08:19:19;;;;;;;;;;;;;;;23.56;40.02;101105.47;5007902;28;6979;-72
2022/05/14 08:24:34;;;;;;;;;;;;;;;23.90;39.95;101115.22;5006958;28;7103;-72
2022/05/14 08:27:05;;;;;;;;;;;;;;;24.09;39.62;101111.81;5006181;28;7192;-73
2022/05/14 08:29:31;;;;;;;;;;;;;;;24.34;39.42;101105.81;5007024;28;6879;-73
2022/05/14 08:31:57;;;;;;;;;;;;;;;24.59;39.13;101103.19;5008523;28;6800;-73
2022/05/14 08:34:22;;;;;;;;;;;;;;;24.91;38.44;101107.59;5007962;28;6902;-73
2022/05/14 08:36:48;;;;;;;;;;;;;;;25.30;38.09;101112.81;5005397;28;6803;-73
2022/05/14 08:39:15;;;;;;;;;;;;;;;25.77;37.27;101108.31;4989898;28;7604;-72
2022/05/14 08:41:47;;;;;;;;;;;;;;;26.25;36.55;101104.59;5007570;28;6804;-73
2022/05/14 08:44:19;;;;;;;;;;;;;;;26.83;36.22;101097.16;5000738;28;6815;-73
2022/05/14 08:46:46;;;;;;;;;;;;;;;27.48;35.48;101099.19;4982836;28;8572;-72
2022/05/14 08:49:33;;;;;;;;;;;;;;;28.07;34.74;101094.97;5009806;28;7402;-72
2022/05/14 08:52:01;;;;;;;;;;;;;;;28.61;34.58;101099.47;4997937;28;6835;-72
2022/05/14 08:54:27;;;;;;;;;;;;;;;29.14;33.46;101085.38;4999835;28;6824;-72
2022/05/14 08:57:25;;;;;;;;;;;;;;;29.78;33.45;101085.00;4989798;28;6800;-72
2022/05/14 08:59:56;;;;;;;;;;;;;;;30.36;32.26;101083.72;5000005;28;6883;-72
2022/05/14 09:02:37;;;;;;;;;;;;;;;30.87;31.89;101087.75;4981297;28;7321;-72
2022/05/14 09:05:18;;;;;;;;;;;;;;;31.45;31.18;101084.44;4998007;28;7125;-72
2022/05/14 09:07:44;;;;;;;;;;;;;;;32.03;30.70;101080.13;4999057;28;7632;-72
2022/05/14 09:10:41;;;;;;;;;;;;;;;32.55;29.79;101088.19;5008991;28;7029;-72
2022/05/14 09:13:20;;;;;;;;;;;;;;;32.74;28.99;101082.28;4972696;28;7245;-72
2022/05/14 09:15:59;;;;;;;;;;;;;;;32.85;28.81;101078.38;4986041;28;8226;-72
2022/05/14 09:18:45;;;;;;;;;;;;;;;33.13;28.66;101080.03;5004125;28;6812;-72
2022/05/14 09:21:38;;;;;;;;;;;;;;;33.53;28.42;101078.63;5005328;28;7180;-72
2022/05/14 09:24:27;;;;;;;;;;;;;;;33.87;27.99;101071.97;4975358;28;7151;-72
2022/05/14 09:27:16;;;;;;;;;;;;;;;34.16;27.72;101064.66;5000826;28;6804;-72
2022/05/14 09:29:46;;;;;;;;;;;;;;;34.43;26.97;101067.09;5009319;28;6824;-72
2022/05/14 09:32:20;;;;;;;;;;;;;;;34.74;26.76;101065.81;5004980;28;6812;-72
2022/05/14 09:34:47;;;;;;;;;;;;;;;35.02;26.27;101061.94;5003692;28;7042;-72
2022/05/14 09:37:19;;;;;;;;;;;;;;;35.27;25.90;101067.97;4996414;28;6792;-72
2022/05/14 09:40:07;;;;;;;;;;;;;;;35.40;26.06;101070.94;5003726;28;6803;-72
2022/05/14 09:42:49;;;;;;;;;;;;;;;35.57;25.81;101060.38;5007385;28;6808;-72
2022/05/14 09:45:48;;;;;;;;;;;;;;;35.87;25.69;101061.63;4977726;28;7019;-72
2022/05/14 09:48:21;;;;;;;;;;;;;;;36.18;25.24;101059.31;4992737;28;7292;-72
2022/05/14 09:51:08;;;;;;;;;;;;;;;36.42;25.15;101063.41;4997317;28;6816;-72
2022/05/14 09:53:40;;;;;;;;;;;;;;;36.73;24.13;101065.47;5005153;28;7139;-72
2022/05/14 09:56:46;;;;;;;;;;;;;;;36.90;24.35;101057.44;5005921;28;6875;-72
2022/05/14 09:59:27;;;;;;;;;;;;;;;37.00;24.20;101062.28;5006001;28;7038;-72
2022/05/14 10:02:27;;;;;;;;;;;;;;;37.21;23.51;101063.81;5005494;28;6808;-72
2022/05/14 10:05:34;;;;;;;;;;;;;;;37.36;22.95;101069.25;4993082;28;6819;-72
2022/05/14 10:08:33;;;;;;;;;;;;;;;37.10;23.18;101060.88;4998039;28;6992;-72
2022/05/14 10:11:46;;;;;;;;;;;;;;;36.80;22.89;101057.03;5006242;28;6819;-72
2022/05/14 10:14:53;;;;;;;;;;;;;;;36.90;23.10;101052.09;4998488;28;6827;-72
2022/05/14 10:17:43;;;;;;;;;;;;;;;37.20;22.71;101058.56;4996506;28;6820;-72
2022/05/14 10:20:32;;;;;;;;;;;;;;;37.41;22.25;101058.31;4977155;28;6820;-73
2022/05/14 10:27:28;;;;;;;;;;;;;;;37.41;22.37;101058.31;5005066;28;6824;-73
2022/05/14 10:30:52;;;;;;;;;;;;;;;37.62;22.29;101058.97;4994720;28;6835;-73
2022/05/14 10:33:27;;;;;;;;;;;;;;;37.78;21.51;101056.28;4998825;28;6824;-73
2022/05/14 10:35:54;;;;;;;;;;;;;;;37.77;21.62;101058.09;5001078;28;6868;-73
2022/05/14 10:38:43;;;;;;;;;;;;;;;38.01;21.58;101049.63;4997340;28;7840;-73
2022/05/14 10:41:09;;;;;;;;;;;;;;;38.26;21.50;101058.91;4977368;28;7246;-73
2022/05/14 10:44:09;;;;;;;;;;;;;;;38.47;21.19;101051.38;5001809;28;7046;-73
2022/05/14 10:46:38;;;;;;;;;;;;;;;38.65;21.20;101055.78;4996239;28;6816;-73
2022/05/14 10:49:17;;;;;;;;;;;;;;;38.93;20.98;101052.25;4990928;28;6796;-73
2022/05/14 10:51:48;;;;;;;;;;;;;;;39.34;20.59;101050.63;4999124;28;6811;-73
2022/05/14 10:54:23;;;;;;;;;;;;;;;39.37;20.50;101045.06;4999218;28;6823;-73
2022/05/14 10:57:00;;;;;;;;;;;;;;;39.31;20.29;101051.69;4991767;28;6880;-73
2022/05/14 10:59:35;;;;;;;;;;;;;;;39.50;20.29;101037.13;4994874;28;7192;-73
2022/05/14 11:02:08;;;;;;;;;;;;;;;39.69;20.23;101038.59;5000565;28;6804;-73
2022/05/14 11:04:40;;;;;;;;;;;;;;;39.86;19.87;101040.16;4999902;28;6820;-73
2022/05/14 11:07:16;;;;;;;;;;;;;;;39.92;19.69;101033.53;5000536;28;6807;-73
2022/05/14 11:09:48;;;;;;;;;;;;;;;39.97;19.51;101034.97;4979166;28;6804;-73
2022/05/14 11:12:19;;;;;;;;;;;;;;;39.84;19.31;101036.72;5002989;28;7042;-73
2022/05/14 11:14:50;;;;;;;;;;;;;;;39.65;19.48;101032.56;5002995;28;6799;-73
2022/05/14 11:17:24;;;;;;;;;;;;;;;39.65;19.40;101037.09;5000083;28;7843;-73
2022/05/14 11:20:16;;;;;;;;;;;;;;;39.78;19.35;101037.13;5003270;28;8716;-73
2022/05/14 11:23:12;;;;;;;;;;;;;;;40.03;19.22;101032.84;5005896;28;7130;-73
2022/05/14 11:25:38;;;;;;;;;;;;;;;40.09;19.04;101033.28;5002934;28;6819;-73
2022/05/14 11:28:18;;;;;;;;;;;;;;;40.10;18.64;101035.00;5003919;28;6986;-73
2022/05/14 11:30:50;;;;;;;;;;;;;;;40.20;18.16;101035.25;5016848;28;7249;-73
2022/05/14 11:33:26;;;;;;;;;;;;;;;40.16;17.84;101036.41;5000626;28;10178;-73
2022/05/14 11:35:59;;;;;;;;;;;;;;;39.83;17.57;101026.97;5005846;28;6891;-73
2022/05/14 11:38:24;;;;;;;;;;;;;;;39.58;17.66;101034.81;5003943;28;6800;-73
2022/05/14 11:41:03;;;;;;;;;;;;;;;39.31;17.73;101034.75;5006722;28;6775;-73
2022/05/14 11:43:34;;;;;;;;;;;;;;;39.19;18.04;101047.09;4998074;28;6971;-73
2022/05/14 11:46:09;;;;;;;;;;;;;;;39.09;18.23;101041.47;5017309;28;6823;-73
2022/05/14 11:48:47;;;;;;;;;;;;;;;38.60;18.47;101035.47;5004999;28;6835;-73
2022/05/14 11:51:43;;;;;;;;;;;;;;;38.49;18.78;101046.00;5001210;28;7227;-73
2022/05/14 11:54:24;;;;;;;;;;;;;;;38.47;18.34;101034.50;5003370;28;6827;-72
2022/05/14 11:57:02;;;;;;;;;;;;;;;38.26;17.80;101033.94;5017337;28;6820;-73
2022/05/14 11:59:52;;;;;;;;;;;;;;;37.92;18.37;101023.41;5005228;28;6811;-73
2022/05/14 12:02:49;;;;;;;;;;;;;;;37.42;18.59;101036.88;4998318;28;6823;-72
2022/05/14 12:05:28;;;;;;;;;;;;;;;36.87;18.54;101036.22;5000609;28;6990;-73
2022/05/14 12:08:28;;;;;;;;;;;;;;;36.48;19.35;101030.22;5003800;28;6828;-72
2022/05/14 12:11:40;;;;;;;;;;;;;;;36.39;19.12;101026.19;5020493;28;7145;-72
2022/05/14 12:14:16;;;;;;;;;;;;;;;36.80;19.77;101024.16;5002034;28;6828;-72
2022/05/14 12:16:53;;;;;;;;;;;;;;;37.31;19.13;101028.59;4999084;28;7283;-73
2022/05/14 12:19:24;;;;;;;;;;;;;;;37.71;18.54;101026.38;5006755;28;6915;-73
2022/05/14 12:22:05;;;;;;;;;;;;;;;37.98;18.41;101020.38;5001543;28;7242;-73
2022/05/14 12:24:37;;;;;;;;;;;;;;;38.10;18.04;101017.94;5005055;28;6946;-73
2022/05/14 12:27:15;;;;;;;;;;;;;;;37.86;18.01;101018.38;4985014;28;6808;-73
2022/05/14 12:29:58;;;;;;;;;;;;;;;37.54;18.66;101011.28;5000222;28;6812;-73
2022/05/14 12:35:25;;;;;;;;;;;;;;;37.50;19.17;101018.59;4999134;28;6848;-72
2022/05/14 12:37:58;;;;;;;;;;;;;;;37.81;18.98;101015.13;4998144;28;6816;-72
2022/05/14 12:40:35;;;;;;;;;;;;;;;38.14;18.49;101011.47;4979846;28;7224;-73
2022/05/14 12:43:05;;;;;;;;;;;;;;;38.39;18.19;101004.63;5000689;28;6911;-73
2022/05/14 12:45:48;;;;;;;;;;;;;;;38.65;17.99;101013.78;4961252;28;7025;-73
2022/05/14 12:48:14;;;;;;;;;;;;;;;38.78;17.95;101008.53;4987417;28;7011;-73
2022/05/14 12:50:57;;;;;;;;;;;;;;;38.64;18.30;101003.19;5006167;28;6795;-73
2022/05/14 12:53:37;;;;;;;;;;;;;;;38.48;17.89;101009.44;4999499;28;6795;-72
2022/05/14 12:56:04;;;;;;;;;;;;;;;38.24;18.01;101009.09;5001310;28;6800;-72
2022/05/14 12:58:37;;;;;;;;;;;;;;;37.99;18.21;101008.72;5007941;28;7007;-72
2022/05/14 13:01:08;;;;;;;;;;;;;;;37.88;18.22;101000.47;4987947;28;6804;-72
2022/05/14 13:04:00;;;;;;;;;;;;;;;37.76;17.89;101008.25;5020394;28;7233;-72
2022/05/14 13:06:34;;;;;;;;;;;;;;;37.65;18.60;100989.28;5005809;28;6820;-72
2022/05/14 13:09:05;;;;;;;;;;;;;;;37.72;18.38;100996.00;4998662;28;7061;-72
2022/05/14 13:11:36;;;;;;;;;;;;;;;37.78;18.00;100998.31;5002209;28;6883;-72
2022/05/14 13:14:36;;;;;;;;;;;;;;;37.88;17.99;100995.97;5001490;28;6800;-73
2022/05/14 13:17:07;;;;;;;;;;;;;;;37.99;17.96;100994.47;5018091;28;7412;-72
2022/05/14 13:19:46;;;;;;;;;;;;;;;37.96;18.27;100994.66;5000639;28;6815;-73
2022/05/14 13:22:39;;;;;;;;;;;;;;;37.82;17.82;100985.66;5018259;28;6875;-73
2022/05/14 13:25:32;;;;;;;;;;;;;;;37.22;18.36;100987.19;4994600;28;6816;-72
2022/05/14 13:28:33;;;;;;;;;;;;;;;36.38;18.28;100980.94;4997368;28;6828;-72
2022/05/14 13:31:01;;;;;;;;;;;;;;;35.69;18.94;100983.44;5013951;28;6831;-72
2022/05/14 13:33:38;;;;;;;;;;;;;;;35.26;19.78;100986.34;5003170;28;8394;-72
2022/05/14 13:39:12;;;;;;;;;;;;;;;35.25;20.22;100980.16;4989415;28;9018;-72
2022/05/14 13:41:47;;;;;;;;;;;;;;;35.17;19.85;100980.50;4981412;28;6883;-72